sensor_id;sensor_type;location;lat;lon;timestamp;temperature;humidity
43089;DHT22;28709;52.030;5.652;2023-06-04T00:02:24;14.10;84.70
43089;DHT22;28709;52.030;5.652;2023-06-04T00:04:50;14.10;84.70
43089;DHT22;28709;52.030;5.652;2023-06-04T00:07:16;14.10;85.00
43089;DHT22;28709;52.030;5.652;2023-06-04T00:09:42;14.00;85.10
43089;DHT22;28709;52.030;5.652;2023-06-04T00:12:08;14.00;85.30
43089;DHT22;28709;52.030;5.652;2023-06-04T00:14:33;14.00;85.60
43089;DHT22;28709;52.030;5.652;2023-06-04T00:16:59;13.90;85.60
43089;DHT22;28709;52.030;5.652;2023-06-04T00:19:25;13.90;86.50
43089;DHT22;28709;52.030;5.652;2023-06-04T00:21:50;13.80;86.00
43089;DHT22;28709;52.030;5.652;2023-06-04T00:24:16;13.80;86.20
43089;DHT22;28709;52.030;5.652;2023-06-04T00:26:42;13.80;86.60
43089;DHT22;28709;52.030;5.652;2023-06-04T00:29:08;13.70;86.50
43089;DHT22;28709;52.030;5.652;2023-06-04T00:31:34;13.60;86.70
43089;DHT22;28709;52.030;5.652;2023-06-04T00:33:59;13.60;87.10
43089;DHT22;28709;52.030;5.652;2023-06-04T00:36:25;13.60;87.30
43089;DHT22;28709;52.030;5.652;2023-06-04T00:38:50;13.50;87.60
43089;DHT22;28709;52.030;5.652;2023-06-04T00:41:16;13.50;87.70
43089;DHT22;28709;52.030;5.652;2023-06-04T00:43:42;13.40;87.70
43089;DHT22;28709;52.030;5.652;2023-06-04T00:46:11;13.40;87.80
43089;DHT22;28709;52.030;5.652;2023-06-04T00:48:44;13.40;87.90
43089;DHT22;28709;52.030;5.652;2023-06-04T00:51:10;13.40;87.90
43089;DHT22;28709;52.030;5.652;2023-06-04T00:53:36;13.30;87.90
43089;DHT22;28709;52.030;5.652;2023-06-04T00:56:02;13.30;88.00
43089;DHT22;28709;52.030;5.652;2023-06-04T00:58:30;13.30;88.20
43089;DHT22;28709;52.030;5.652;2023-06-04T01:00:56;13.30;88.40
43089;DHT22;28709;52.030;5.652;2023-06-04T01:03:25;13.20;88.90
43089;DHT22;28709;52.030;5.652;2023-06-04T01:06:04;13.10;89.30
43089;DHT22;28709;52.030;5.652;2023-06-04T01:08:35;13.00;89.60
43089;DHT22;28709;52.030;5.652;2023-06-04T01:11:00;13.00;89.80
43089;DHT22;28709;52.030;5.652;2023-06-04T01:13:26;13.00;90.00
43089;DHT22;28709;52.030;5.652;2023-06-04T01:15:52;12.90;90.10
43089;DHT22;28709;52.030;5.652;2023-06-04T01:18:23;12.90;90.20
43089;DHT22;28709;52.030;5.652;2023-06-04T01:21:06;12.90;90.20
43089;DHT22;28709;52.030;5.652;2023-06-04T01:23:46;12.80;90.30
43089;DHT22;28709;52.030;5.652;2023-06-04T01:26:13;12.80;90.50
43089;DHT22;28709;52.030;5.652;2023-06-04T01:28:39;12.80;90.50
43089;DHT22;28709;52.030;5.652;2023-06-04T01:31:05;12.70;90.60
43089;DHT22;28709;52.030;5.652;2023-06-04T01:33:34;12.70;90.70
43089;DHT22;28709;52.030;5.652;2023-06-04T01:36:00;12.60;90.80
43089;DHT22;28709;52.030;5.652;2023-06-04T01:38:27;12.60;90.90
43089;DHT22;28709;52.030;5.652;2023-06-04T01:40:52;12.60;91.10
43089;DHT22;28709;52.030;5.652;2023-06-04T01:43:24;12.50;91.20
43089;DHT22;28709;52.030;5.652;2023-06-04T01:45:49;12.50;91.40
43089;DHT22;28709;52.030;5.652;2023-06-04T01:48:15;12.50;91.40
43089;DHT22;28709;52.030;5.652;2023-06-04T01:50:41;12.40;91.50
43089;DHT22;28709;52.030;5.652;2023-06-04T01:53:06;12.40;91.50
43089;DHT22;28709;52.030;5.652;2023-06-04T01:55:32;12.40;91.70
43089;DHT22;28709;52.030;5.652;2023-06-04T01:57:59;12.40;91.70
43089;DHT22;28709;52.030;5.652;2023-06-04T02:00:26;12.30;91.70
43089;DHT22;28709;52.030;5.652;2023-06-04T02:02:52;12.30;91.70
43089;DHT22;28709;52.030;5.652;2023-06-04T02:05:18;12.30;91.70
43089;DHT22;28709;52.030;5.652;2023-06-04T02:07:45;12.30;91.70
43089;DHT22;28709;52.030;5.652;2023-06-04T02:10:12;12.30;91.90
43089;DHT22;28709;52.030;5.652;2023-06-04T02:12:40;12.30;92.00
43089;DHT22;28709;52.030;5.652;2023-06-04T02:15:11;12.30;92.00
43089;DHT22;28709;52.030;5.652;2023-06-04T02:17:36;12.20;92.10
43089;DHT22;28709;52.030;5.652;2023-06-04T02:20:08;12.20;92.10
43089;DHT22;28709;52.030;5.652;2023-06-04T02:22:35;12.20;92.20
43089;DHT22;28709;52.030;5.652;2023-06-04T02:25:00;12.10;92.30
43089;DHT22;28709;52.030;5.652;2023-06-04T02:27:26;12.10;92.40
43089;DHT22;28709;52.030;5.652;2023-06-04T02:29:52;12.10;92.40
43089;DHT22;28709;52.030;5.652;2023-06-04T02:32:17;12.00;92.50
43089;DHT22;28709;52.030;5.652;2023-06-04T02:34:43;12.00;92.60
43089;DHT22;28709;52.030;5.652;2023-06-04T02:37:09;11.90;92.70
43089;DHT22;28709;52.030;5.652;2023-06-04T02:39:35;11.90;92.80
43089;DHT22;28709;52.030;5.652;2023-06-04T02:42:01;11.90;92.80
43089;DHT22;28709;52.030;5.652;2023-06-04T02:44:26;11.90;92.90
43089;DHT22;28709;52.030;5.652;2023-06-04T02:46:54;11.80;92.90
43089;DHT22;28709;52.030;5.652;2023-06-04T02:49:20;11.80;92.90
43089;DHT22;28709;52.030;5.652;2023-06-04T02:51:47;11.90;93.10
43089;DHT22;28709;52.030;5.652;2023-06-04T02:54:12;11.80;93.20
43089;DHT22;28709;52.030;5.652;2023-06-04T02:56:38;11.80;93.20
43089;DHT22;28709;52.030;5.652;2023-06-04T02:59:05;11.80;93.30
43089;DHT22;28709;52.030;5.652;2023-06-04T03:01:31;11.70;93.50
43089;DHT22;28709;52.030;5.652;2023-06-04T03:03:56;11.70;93.60
43089;DHT22;28709;52.030;5.652;2023-06-04T03:06:29;11.70;93.70
43089;DHT22;28709;52.030;5.652;2023-06-04T03:08:55;11.60;93.70
43089;DHT22;28709;52.030;5.652;2023-06-04T03:11:21;11.60;93.90
43089;DHT22;28709;52.030;5.652;2023-06-04T03:13:47;11.50;94.00
43089;DHT22;28709;52.030;5.652;2023-06-04T03:16:13;11.50;94.10
43089;DHT22;28709;52.030;5.652;2023-06-04T03:18:42;11.50;94.40
43089;DHT22;28709;52.030;5.652;2023-06-04T03:21:09;11.50;94.30
43089;DHT22;28709;52.030;5.652;2023-06-04T03:23:37;11.50;94.30
43089;DHT22;28709;52.030;5.652;2023-06-04T03:26:04;11.50;94.30
43089;DHT22;28709;52.030;5.652;2023-06-04T03:28:31;11.50;94.50
43089;DHT22;28709;52.030;5.652;2023-06-04T03:30:57;11.40;94.50
43089;DHT22;28709;52.030;5.652;2023-06-04T03:33:23;11.40;94.70
43089;DHT22;28709;52.030;5.652;2023-06-04T03:35:50;11.40;94.80
43089;DHT22;28709;52.030;5.652;2023-06-04T03:38:16;11.30;94.90
43089;DHT22;28709;52.030;5.652;2023-06-04T03:40:42;11.30;95.00
43089;DHT22;28709;52.030;5.652;2023-06-04T03:43:08;11.30;95.00
43089;DHT22;28709;52.030;5.652;2023-06-04T03:45:34;11.30;95.10
43089;DHT22;28709;52.030;5.652;2023-06-04T03:47:59;11.30;95.10
43089;DHT22;28709;52.030;5.652;2023-06-04T03:50:25;11.30;95.30
43089;DHT22;28709;52.030;5.652;2023-06-04T03:52:51;11.30;95.40
43089;DHT22;28709;52.030;5.652;2023-06-04T03:55:17;11.30;95.40
43089;DHT22;28709;52.030;5.652;2023-06-04T03:57:42;11.20;95.70
43089;DHT22;28709;52.030;5.652;2023-06-04T04:00:09;11.30;96.00
43089;DHT22;28709;52.030;5.652;2023-06-04T04:02:42;11.20;96.00
43089;DHT22;28709;52.030;5.652;2023-06-04T04:05:08;11.20;96.20
43089;DHT22;28709;52.030;5.652;2023-06-04T04:07:35;11.20;96.20
43089;DHT22;28709;52.030;5.652;2023-06-04T04:10:00;11.20;96.20
43089;DHT22;28709;52.030;5.652;2023-06-04T04:12:26;11.30;96.40
43089;DHT22;28709;52.030;5.652;2023-06-04T04:14:52;11.30;96.50
43089;DHT22;28709;52.030;5.652;2023-06-04T04:17:17;11.30;96.70
43089;DHT22;28709;52.030;5.652;2023-06-04T04:19:43;11.30;97.20
43089;DHT22;28709;52.030;5.652;2023-06-04T04:22:10;11.30;97.20
43089;DHT22;28709;52.030;5.652;2023-06-04T04:24:36;11.30;97.30
43089;DHT22;28709;52.030;5.652;2023-06-04T04:27:04;11.40;97.60
43089;DHT22;28709;52.030;5.652;2023-06-04T04:29:30;11.40;97.60
43089;DHT22;28709;52.030;5.652;2023-06-04T04:32:01;11.40;97.80
43089;DHT22;28709;52.030;5.652;2023-06-04T04:34:27;11.40;97.90
43089;DHT22;28709;52.030;5.652;2023-06-04T04:36:53;11.50;98.00
43089;DHT22;28709;52.030;5.652;2023-06-04T04:39:23;11.50;98.10
43089;DHT22;28709;52.030;5.652;2023-06-04T04:41:52;11.50;98.20
43089;DHT22;28709;52.030;5.652;2023-06-04T04:44:17;11.60;98.30
43089;DHT22;28709;52.030;5.652;2023-06-04T04:46:43;11.70;98.50
43089;DHT22;28709;52.030;5.652;2023-06-04T04:49:09;11.70;98.50
43089;DHT22;28709;52.030;5.652;2023-06-04T04:51:35;11.80;98.50
43089;DHT22;28709;52.030;5.652;2023-06-04T04:54:00;11.90;98.60
43089;DHT22;28709;52.030;5.652;2023-06-04T04:56:27;11.90;98.50
43089;DHT22;28709;52.030;5.652;2023-06-04T04:58:53;12.00;98.60
43089;DHT22;28709;52.030;5.652;2023-06-04T05:01:19;12.00;98.70
43089;DHT22;28709;52.030;5.652;2023-06-04T05:03:45;12.10;98.70
43089;DHT22;28709;52.030;5.652;2023-06-04T05:06:11;12.10;98.70
43089;DHT22;28709;52.030;5.652;2023-06-04T05:08:36;12.20;98.90
43089;DHT22;28709;52.030;5.652;2023-06-04T05:11:02;12.30;98.90
43089;DHT22;28709;52.030;5.652;2023-06-04T05:13:28;12.30;98.90
43089;DHT22;28709;52.030;5.652;2023-06-04T05:15:54;12.40;99.00
43089;DHT22;28709;52.030;5.652;2023-06-04T05:18:19;12.50;99.10
43089;DHT22;28709;52.030;5.652;2023-06-04T05:20:54;12.50;99.40
43089;DHT22;28709;52.030;5.652;2023-06-04T05:23:20;12.50;99.40
43089;DHT22;28709;52.030;5.652;2023-06-04T05:25:46;12.50;99.40
43089;DHT22;28709;52.030;5.652;2023-06-04T05:28:14;12.60;99.50
43089;DHT22;28709;52.030;5.652;2023-06-04T05:30:40;12.70;99.50
43089;DHT22;28709;52.030;5.652;2023-06-04T05:33:07;12.80;99.50
43089;DHT22;28709;52.030;5.652;2023-06-04T05:35:46;13.00;99.60
43089;DHT22;28709;52.030;5.652;2023-06-04T05:38:13;13.10;99.50
43089;DHT22;28709;52.030;5.652;2023-06-04T05:40:44;13.20;99.50
43089;DHT22;28709;52.030;5.652;2023-06-04T05:43:10;13.30;99.40
43089;DHT22;28709;52.030;5.652;2023-06-04T05:45:36;13.50;99.40
43089;DHT22;28709;52.030;5.652;2023-06-04T05:48:01;13.60;99.30
43089;DHT22;28709;52.030;5.652;2023-06-04T05:50:28;13.80;99.10
43089;DHT22;28709;52.030;5.652;2023-06-04T05:52:53;13.90;99.00
43089;DHT22;28709;52.030;5.652;2023-06-04T05:55:19;14.10;98.90
43089;DHT22;28709;52.030;5.652;2023-06-04T05:57:45;14.20;98.80
43089;DHT22;28709;52.030;5.652;2023-06-04T06:00:11;14.30;98.60
43089;DHT22;28709;52.030;5.652;2023-06-04T06:02:37;14.50;98.60
43089;DHT22;28709;52.030;5.652;2023-06-04T06:05:04;14.70;98.50
43089;DHT22;28709;52.030;5.652;2023-06-04T06:07:33;14.90;98.40
43089;DHT22;28709;52.030;5.652;2023-06-04T06:09:59;15.00;98.20
43089;DHT22;28709;52.030;5.652;2023-06-04T06:12:25;15.20;97.90
43089;DHT22;28709;52.030;5.652;2023-06-04T06:14:50;15.30;97.80
43089;DHT22;28709;52.030;5.652;2023-06-04T06:17:16;15.50;97.60
43089;DHT22;28709;52.030;5.652;2023-06-04T06:19:42;15.60;97.50
43089;DHT22;28709;52.030;5.652;2023-06-04T06:22:07;15.80;97.40
43089;DHT22;28709;52.030;5.652;2023-06-04T06:24:33;16.00;97.10
43089;DHT22;28709;52.030;5.652;2023-06-04T06:26:59;16.00;96.50
43089;DHT22;28709;52.030;5.652;2023-06-04T06:29:25;16.10;96.00
43089;DHT22;28709;52.030;5.652;2023-06-04T06:31:51;16.00;95.80
43089;DHT22;28709;52.030;5.652;2023-06-04T06:34:16;16.00;95.80
43089;DHT22;28709;52.030;5.652;2023-06-04T06:36:42;16.10;95.30
43089;DHT22;28709;52.030;5.652;2023-06-04T06:39:08;16.20;95.50
43089;DHT22;28709;52.030;5.652;2023-06-04T06:41:34;16.30;95.30
43089;DHT22;28709;52.030;5.652;2023-06-04T06:44:00;16.40;94.90
43089;DHT22;28709;52.030;5.652;2023-06-04T06:46:26;16.50;94.80
43089;DHT22;28709;52.030;5.652;2023-06-04T06:48:51;16.60;94.50
43089;DHT22;28709;52.030;5.652;2023-06-04T06:51:17;16.70;94.20
43089;DHT22;28709;52.030;5.652;2023-06-04T06:53:43;16.90;94.30
43089;DHT22;28709;52.030;5.652;2023-06-04T06:56:08;17.10;94.00
43089;DHT22;28709;52.030;5.652;2023-06-04T06:58:34;17.20;93.60
43089;DHT22;28709;52.030;5.652;2023-06-04T07:01:00;17.40;93.50
43089;DHT22;28709;52.030;5.652;2023-06-04T07:03:26;17.60;93.70
43089;DHT22;28709;52.030;5.652;2023-06-04T07:05:53;17.70;92.80
43089;DHT22;28709;52.030;5.652;2023-06-04T07:08:19;17.70;92.60
43089;DHT22;28709;52.030;5.652;2023-06-04T07:10:44;17.70;92.60
43089;DHT22;28709;52.030;5.652;2023-06-04T07:13:10;17.70;92.70
43089;DHT22;28709;52.030;5.652;2023-06-04T07:15:36;18.00;92.60
43089;DHT22;28709;52.030;5.652;2023-06-04T07:18:01;18.10;92.20
43089;DHT22;28709;52.030;5.652;2023-06-04T07:20:27;18.30;91.80
43089;DHT22;28709;52.030;5.652;2023-06-04T07:22:53;18.30;91.60
43089;DHT22;28709;52.030;5.652;2023-06-04T07:25:19;18.50;91.70
43089;DHT22;28709;52.030;5.652;2023-06-04T07:27:45;18.80;91.50
43089;DHT22;28709;52.030;5.652;2023-06-04T07:30:11;19.10;91.30
43089;DHT22;28709;52.030;5.652;2023-06-04T07:32:36;19.40;90.70
43089;DHT22;28709;52.030;5.652;2023-06-04T07:35:02;19.60;89.40
43089;DHT22;28709;52.030;5.652;2023-06-04T07:37:28;19.50;87.80
43089;DHT22;28709;52.030;5.652;2023-06-04T07:39:54;19.40;87.80
43089;DHT22;28709;52.030;5.652;2023-06-04T07:42:19;19.40;88.10
43089;DHT22;28709;52.030;5.652;2023-06-04T07:44:45;19.60;88.60
43089;DHT22;28709;52.030;5.652;2023-06-04T07:47:11;19.90;87.30
43089;DHT22;28709;52.030;5.652;2023-06-04T07:49:36;20.00;86.90
43089;DHT22;28709;52.030;5.652;2023-06-04T07:52:02;20.10;86.80
43089;DHT22;28709;52.030;5.652;2023-06-04T07:54:28;20.20;86.60
43089;DHT22;28709;52.030;5.652;2023-06-04T07:56:53;20.40;86.30
43089;DHT22;28709;52.030;5.652;2023-06-04T07:59:22;20.50;84.20
43089;DHT22;28709;52.030;5.652;2023-06-04T08:01:50;20.40;85.10
43089;DHT22;28709;52.030;5.652;2023-06-04T08:04:16;20.50;84.70
43089;DHT22;28709;52.030;5.652;2023-06-04T08:06:42;20.70;83.90
43089;DHT22;28709;52.030;5.652;2023-06-04T08:09:10;20.60;81.40
43089;DHT22;28709;52.030;5.652;2023-06-04T08:11:37;20.50;82.60
43089;DHT22;28709;52.030;5.652;2023-06-04T08:14:02;20.70;82.70
43089;DHT22;28709;52.030;5.652;2023-06-04T08:16:28;21.00;81.50
43089;DHT22;28709;52.030;5.652;2023-06-04T08:18:53;21.10;81.00
43089;DHT22;28709;52.030;5.652;2023-06-04T08:21:27;21.00;78.90
43089;DHT22;28709;52.030;5.652;2023-06-04T08:23:53;20.80;79.10
43089;DHT22;28709;52.030;5.652;2023-06-04T08:26:19;20.80;78.80
43089;DHT22;28709;52.030;5.652;2023-06-04T08:28:48;20.70;77.50
43089;DHT22;28709;52.030;5.652;2023-06-04T08:31:14;20.70;78.10
43089;DHT22;28709;52.030;5.652;2023-06-04T08:33:41;20.90;78.50
43089;DHT22;28709;52.030;5.652;2023-06-04T08:36:06;21.30;78.80
43089;DHT22;28709;52.030;5.652;2023-06-04T08:38:32;21.80;76.60
43089;DHT22;28709;52.030;5.652;2023-06-04T08:41:20;21.90;75.00
43089;DHT22;28709;52.030;5.652;2023-06-04T08:43:50;21.60;75.30
43089;DHT22;28709;52.030;5.652;2023-06-04T08:46:15;21.60;75.40
43089;DHT22;28709;52.030;5.652;2023-06-04T08:48:43;21.60;74.60
43089;DHT22;28709;52.030;5.652;2023-06-04T08:51:10;21.70;73.90
43089;DHT22;28709;52.030;5.652;2023-06-04T08:53:36;22.00;74.20
43089;DHT22;28709;52.030;5.652;2023-06-04T08:56:02;22.00;72.60
43089;DHT22;28709;52.030;5.652;2023-06-04T08:58:31;22.00;72.20
43089;DHT22;28709;52.030;5.652;2023-06-04T09:01:01;22.00;71.30
43089;DHT22;28709;52.030;5.652;2023-06-04T09:03:27;22.00;71.90
43089;DHT22;28709;52.030;5.652;2023-06-04T09:05:54;22.30;69.20
43089;DHT22;28709;52.030;5.652;2023-06-04T09:08:21;22.30;69.10
43089;DHT22;28709;52.030;5.652;2023-06-04T09:10:49;22.50;70.10
43089;DHT22;28709;52.030;5.652;2023-06-04T09:13:18;23.00;69.00
43089;DHT22;28709;52.030;5.652;2023-06-04T09:15:46;23.30;68.30
43089;DHT22;28709;52.030;5.652;2023-06-04T09:18:12;23.50;67.30
43089;DHT22;28709;52.030;5.652;2023-06-04T09:20:38;23.70;65.70
43089;DHT22;28709;52.030;5.652;2023-06-04T09:23:13;23.50;65.10
43089;DHT22;28709;52.030;5.652;2023-06-04T09:25:42;23.30;66.10
43089;DHT22;28709;52.030;5.652;2023-06-04T09:28:09;23.40;66.20
43089;DHT22;28709;52.030;5.652;2023-06-04T09:30:34;23.40;65.50
43089;DHT22;28709;52.030;5.652;2023-06-04T09:33:09;23.30;65.50
43089;DHT22;28709;52.030;5.652;2023-06-04T09:35:35;23.30;65.70
43089;DHT22;28709;52.030;5.652;2023-06-04T09:38:01;23.70;65.40
43089;DHT22;28709;52.030;5.652;2023-06-04T09:40:36;24.00;64.30
43089;DHT22;28709;52.030;5.652;2023-06-04T09:43:02;23.90;62.60
43089;DHT22;28709;52.030;5.652;2023-06-04T09:45:32;23.70;62.50
43089;DHT22;28709;52.030;5.652;2023-06-04T09:47:59;23.80;62.80
43089;DHT22;28709;52.030;5.652;2023-06-04T09:50:30;24.00;62.20
43089;DHT22;28709;52.030;5.652;2023-06-04T09:52:57;23.90;60.30
43089;DHT22;28709;52.030;5.652;2023-06-04T09:55:23;23.60;61.10
43089;DHT22;28709;52.030;5.652;2023-06-04T09:57:50;23.50;61.00
43089;DHT22;28709;52.030;5.652;2023-06-04T10:00:17;23.80;59.80
43089;DHT22;28709;52.030;5.652;2023-06-04T10:02:44;24.20;59.40
43089;DHT22;28709;52.030;5.652;2023-06-04T10:05:11;24.50;59.00
43089;DHT22;28709;52.030;5.652;2023-06-04T10:07:45;24.60;57.70
43089;DHT22;28709;52.030;5.652;2023-06-04T10:10:16;24.80;57.80
43089;DHT22;28709;52.030;5.652;2023-06-04T10:12:43;25.00;57.60
43089;DHT22;28709;52.030;5.652;2023-06-04T10:15:13;25.20;55.80
43089;DHT22;28709;52.030;5.652;2023-06-04T10:17:40;24.80;54.90
43089;DHT22;28709;52.030;5.652;2023-06-04T10:20:10;24.50;54.40
43089;DHT22;28709;52.030;5.652;2023-06-04T10:22:37;24.20;55.80
43089;DHT22;28709;52.030;5.652;2023-06-04T10:25:03;24.30;55.50
43089;DHT22;28709;52.030;5.652;2023-06-04T10:27:33;24.50;55.50
43089;DHT22;28709;52.030;5.652;2023-06-04T10:30:01;24.70;56.00
43089;DHT22;28709;52.030;5.652;2023-06-04T10:32:28;25.00;55.70
43089;DHT22;28709;52.030;5.652;2023-06-04T10:34:54;25.10;56.00
43089;DHT22;28709;52.030;5.652;2023-06-04T10:37:25;25.20;55.90
43089;DHT22;28709;52.030;5.652;2023-06-04T10:39:52;25.10;55.80
43089;DHT22;28709;52.030;5.652;2023-06-04T10:42:18;24.90;56.00
43089;DHT22;28709;52.030;5.652;2023-06-04T10:44:46;24.90;55.90
43089;DHT22;28709;52.030;5.652;2023-06-04T10:47:24;25.20;55.90
43089;DHT22;28709;52.030;5.652;2023-06-04T10:49:51;25.30;55.60
43089;DHT22;28709;52.030;5.652;2023-06-04T10:52:17;25.50;54.90
43089;DHT22;28709;52.030;5.652;2023-06-04T10:54:45;25.70;54.60
43089;DHT22;28709;52.030;5.652;2023-06-04T10:57:20;25.60;54.60
43089;DHT22;28709;52.030;5.652;2023-06-04T10:59:55;25.40;54.90
43089;DHT22;28709;52.030;5.652;2023-06-04T11:02:21;25.20;53.90
43089;DHT22;28709;52.030;5.652;2023-06-04T11:04:47;24.80;54.10
43089;DHT22;28709;52.030;5.652;2023-06-04T11:07:23;24.60;54.70
43089;DHT22;28709;52.030;5.652;2023-06-04T11:09:51;24.80;55.00
43089;DHT22;28709;52.030;5.652;2023-06-04T11:12:17;25.00;55.20
43089;DHT22;28709;52.030;5.652;2023-06-04T11:14:56;25.10;54.30
43089;DHT22;28709;52.030;5.652;2023-06-04T11:17:22;25.00;54.60
43089;DHT22;28709;52.030;5.652;2023-06-04T11:19:48;25.00;54.90
43089;DHT22;28709;52.030;5.652;2023-06-04T11:22:14;25.10;55.10
43089;DHT22;28709;52.030;5.652;2023-06-04T11:24:40;25.30;55.40
43089;DHT22;28709;52.030;5.652;2023-06-04T11:27:05;25.80;55.00
43089;DHT22;28709;52.030;5.652;2023-06-04T11:29:32;26.00;54.30
43089;DHT22;28709;52.030;5.652;2023-06-04T11:31:58;26.10;54.10
43089;DHT22;28709;52.030;5.652;2023-06-04T11:34:25;26.00;54.30
43089;DHT22;28709;52.030;5.652;2023-06-04T11:36:51;26.10;54.20
43089;DHT22;28709;52.030;5.652;2023-06-04T11:39:18;25.90;54.40
43089;DHT22;28709;52.030;5.652;2023-06-04T11:41:45;26.00;54.40
43089;DHT22;28709;52.030;5.652;2023-06-04T11:44:12;26.10;54.00
43089;DHT22;28709;52.030;5.652;2023-06-04T11:46:44;25.90;54.20
43089;DHT22;28709;52.030;5.652;2023-06-04T11:49:15;25.70;54.50
43089;DHT22;28709;52.030;5.652;2023-06-04T11:51:48;25.90;54.60
43089;DHT22;28709;52.030;5.652;2023-06-04T11:54:16;25.90;54.40
43089;DHT22;28709;52.030;5.652;2023-06-04T11:56:42;25.90;54.30
43089;DHT22;28709;52.030;5.652;2023-06-04T11:59:16;25.70;53.80
43089;DHT22;28709;52.030;5.652;2023-06-04T12:01:43;25.40;54.30
43089;DHT22;28709;52.030;5.652;2023-06-04T12:04:16;25.30;53.90
43089;DHT22;28709;52.030;5.652;2023-06-04T12:06:55;25.10;54.10
43089;DHT22;28709;52.030;5.652;2023-06-04T12:09:30;24.80;54.70
43089;DHT22;28709;52.030;5.652;2023-06-04T12:12:05;24.80;55.10
43089;DHT22;28709;52.030;5.652;2023-06-04T12:14:31;24.90;55.10
43089;DHT22;28709;52.030;5.652;2023-06-04T12:16:59;25.10;54.60
43089;DHT22;28709;52.030;5.652;2023-06-04T12:19:25;25.40;54.20
43089;DHT22;28709;52.030;5.652;2023-06-04T12:22:01;25.70;54.60
43089;DHT22;28709;52.030;5.652;2023-06-04T12:24:27;26.10;54.50
43089;DHT22;28709;52.030;5.652;2023-06-04T12:27:02;26.20;53.90
43089;DHT22;28709;52.030;5.652;2023-06-04T12:29:28;26.10;53.70
43089;DHT22;28709;52.030;5.652;2023-06-04T12:32:02;25.80;54.00
43089;DHT22;28709;52.030;5.652;2023-06-04T12:34:28;25.50;53.50
43089;DHT22;28709;52.030;5.652;2023-06-04T12:36:54;25.20;54.00
43089;DHT22;28709;52.030;5.652;2023-06-04T12:39:20;25.20;54.20
43089;DHT22;28709;52.030;5.652;2023-06-04T12:41:46;24.90;54.60
43089;DHT22;28709;52.030;5.652;2023-06-04T12:44:11;24.80;55.00
43089;DHT22;28709;52.030;5.652;2023-06-04T12:46:37;24.70;55.00
43089;DHT22;28709;52.030;5.652;2023-06-04T12:49:03;24.60;55.60
43089;DHT22;28709;52.030;5.652;2023-06-04T12:51:28;24.70;55.60
43089;DHT22;28709;52.030;5.652;2023-06-04T12:53:54;24.80;55.60
43089;DHT22;28709;52.030;5.652;2023-06-04T12:56:19;24.80;55.70
43089;DHT22;28709;52.030;5.652;2023-06-04T12:58:45;24.90;55.80
43089;DHT22;28709;52.030;5.652;2023-06-04T13:01:11;25.00;55.70
43089;DHT22;28709;52.030;5.652;2023-06-04T13:03:40;25.00;55.60
43089;DHT22;28709;52.030;5.652;2023-06-04T13:06:06;25.00;56.50
43089;DHT22;28709;52.030;5.652;2023-06-04T13:08:33;25.00;55.20
43089;DHT22;28709;52.030;5.652;2023-06-04T13:10:59;24.80;55.50
43089;DHT22;28709;52.030;5.652;2023-06-04T13:13:25;24.80;56.00
43089;DHT22;28709;52.030;5.652;2023-06-04T13:15:50;25.10;55.70
43089;DHT22;28709;52.030;5.652;2023-06-04T13:18:16;25.00;56.30
43089;DHT22;28709;52.030;5.652;2023-06-04T13:20:42;25.00;55.30
43089;DHT22;28709;52.030;5.652;2023-06-04T13:23:09;24.80;55.50
43089;DHT22;28709;52.030;5.652;2023-06-04T13:25:37;24.70;55.70
43089;DHT22;28709;52.030;5.652;2023-06-04T13:28:04;24.70;56.10
43089;DHT22;28709;52.030;5.652;2023-06-04T13:30:30;25.00;55.80
43089;DHT22;28709;52.030;5.652;2023-06-04T13:32:55;25.20;55.20
43089;DHT22;28709;52.030;5.652;2023-06-04T13:35:23;25.40;55.50
43089;DHT22;28709;52.030;5.652;2023-06-04T13:37:49;25.40;55.10
43089;DHT22;28709;52.030;5.652;2023-06-04T13:40:15;25.30;55.30
43089;DHT22;28709;52.030;5.652;2023-06-04T13:42:40;25.20;55.40
43089;DHT22;28709;52.030;5.652;2023-06-04T13:45:08;25.10;55.30
43089;DHT22;28709;52.030;5.652;2023-06-04T13:47:34;25.10;55.40
43089;DHT22;28709;52.030;5.652;2023-06-04T13:50:00;24.80;55.00
43089;DHT22;28709;52.030;5.652;2023-06-04T13:52:26;24.60;55.30
43089;DHT22;28709;52.030;5.652;2023-06-04T13:54:53;24.50;55.10
43089;DHT22;28709;52.030;5.652;2023-06-04T13:57:19;24.50;55.30
43089;DHT22;28709;52.030;5.652;2023-06-04T13:59:45;24.50;55.00
43089;DHT22;28709;52.030;5.652;2023-06-04T14:02:10;24.30;55.20
43089;DHT22;28709;52.030;5.652;2023-06-04T14:04:36;24.30;55.50
43089;DHT22;28709;52.030;5.652;2023-06-04T14:07:02;24.30;55.40
43089;DHT22;28709;52.030;5.652;2023-06-04T14:09:27;24.30;55.60
43089;DHT22;28709;52.030;5.652;2023-06-04T14:11:53;24.50;55.90
43089;DHT22;28709;52.030;5.652;2023-06-04T14:14:20;24.50;55.80
43089;DHT22;28709;52.030;5.652;2023-06-04T14:16:47;24.60;55.90
43089;DHT22;28709;52.030;5.652;2023-06-04T14:19:13;24.50;55.40
43089;DHT22;28709;52.030;5.652;2023-06-04T14:21:40;24.40;55.50
43089;DHT22;28709;52.030;5.652;2023-06-04T14:24:05;24.30;55.20
43089;DHT22;28709;52.030;5.652;2023-06-04T14:26:31;24.10;55.40
43089;DHT22;28709;52.030;5.652;2023-06-04T14:28:57;24.00;55.50
43089;DHT22;28709;52.030;5.652;2023-06-04T14:31:23;23.90;55.60
43089;DHT22;28709;52.030;5.652;2023-06-04T14:33:48;23.80;56.00
43089;DHT22;28709;52.030;5.652;2023-06-04T14:36:14;23.90;56.10
43089;DHT22;28709;52.030;5.652;2023-06-04T14:38:40;23.90;56.60
43089;DHT22;28709;52.030;5.652;2023-06-04T14:41:06;24.00;56.40
43089;DHT22;28709;52.030;5.652;2023-06-04T14:43:32;24.00;55.80
43089;DHT22;28709;52.030;5.652;2023-06-04T14:45:57;24.00;56.00
43089;DHT22;28709;52.030;5.652;2023-06-04T14:48:23;23.90;55.80
43089;DHT22;28709;52.030;5.652;2023-06-04T14:50:49;23.80;56.10
43089;DHT22;28709;52.030;5.652;2023-06-04T14:53:18;23.80;56.20
43089;DHT22;28709;52.030;5.652;2023-06-04T14:55:44;24.00;56.30
43089;DHT22;28709;52.030;5.652;2023-06-04T14:58:11;24.00;56.20
43089;DHT22;28709;52.030;5.652;2023-06-04T15:00:37;24.10;56.10
43089;DHT22;28709;52.030;5.652;2023-06-04T15:03:03;24.20;55.90
43089;DHT22;28709;52.030;5.652;2023-06-04T15:05:29;24.20;55.90
43089;DHT22;28709;52.030;5.652;2023-06-04T15:07:55;24.10;56.10
43089;DHT22;28709;52.030;5.652;2023-06-04T15:10:20;24.00;56.20
43089;DHT22;28709;52.030;5.652;2023-06-04T15:12:46;24.00;56.10
43089;DHT22;28709;52.030;5.652;2023-06-04T15:15:12;23.90;56.40
43089;DHT22;28709;52.030;5.652;2023-06-04T15:17:37;23.80;55.80
43089;DHT22;28709;52.030;5.652;2023-06-04T15:20:04;23.80;56.50
43089;DHT22;28709;52.030;5.652;2023-06-04T15:22:30;23.70;55.80
43089;DHT22;28709;52.030;5.652;2023-06-04T15:24:55;23.70;55.80
43089;DHT22;28709;52.030;5.652;2023-06-04T15:27:21;23.80;55.90
43089;DHT22;28709;52.030;5.652;2023-06-04T15:29:47;23.80;56.70